createdAt,value
2018-11-14T00:01:08.581Z,92.20
2018-11-14T00:03:37.821Z,91.90
2018-11-14T00:06:08.132Z,89.60
2018-11-14T00:08:37.940Z,90.30
2018-11-14T00:11:07.645Z,91.60
2018-11-14T00:13:36.899Z,92.20
2018-11-14T00:16:07.229Z,93.40
2018-11-14T00:18:36.977Z,94.00
2018-11-14T00:21:09.851Z,94.50
2018-11-14T00:23:41.181Z,94.10
2018-11-14T00:26:10.425Z,94.50
2018-11-14T00:28:39.884Z,94.80
2018-11-14T00:31:10.084Z,95.10
2018-11-14T00:33:40.639Z,95.40
2018-11-14T00:36:10.818Z,94.70
2018-11-14T00:38:40.031Z,92.30
2018-11-14T00:41:10.335Z,92.00
2018-11-14T00:43:39.855Z,92.40
2018-11-14T00:46:09.875Z,92.90
2018-11-14T00:48:39.204Z,93.10
2018-11-14T00:51:09.426Z,93.20
2018-11-14T00:53:39.090Z,93.10
2018-11-14T00:56:08.339Z,92.90
2018-11-14T00:58:37.566Z,91.60
2018-11-14T01:01:06.839Z,92.30
2018-11-14T01:03:36.064Z,93.40
2018-11-14T01:06:05.327Z,94.20
2018-11-14T01:08:34.565Z,94.40
2018-11-14T01:11:03.787Z,94.40
2018-11-14T01:13:33.031Z,93.40
2018-11-14T01:16:03.348Z,92.80
2018-11-14T01:18:33.242Z,92.90
2018-11-14T01:21:02.454Z,92.50
2018-11-14T01:23:32.286Z,93.10
2018-11-14T01:26:01.611Z,92.80
2018-11-14T01:28:30.791Z,93.80
2018-11-14T01:31:01.589Z,93.30
2018-11-14T01:33:30.807Z,92.00
2018-11-14T01:36:00.491Z,92.60
2018-11-14T01:38:31.935Z,92.50
2018-11-14T01:41:01.240Z,92.70
2018-11-14T01:43:30.431Z,93.50
2018-11-14T01:46:01.232Z,93.80
2018-11-14T01:48:31.222Z,94.50
2018-11-14T01:51:00.468Z,94.00
2018-11-14T01:53:30.714Z,93.60
2018-11-14T01:56:00.154Z,94.40
2018-11-14T01:58:29.952Z,94.30
2018-11-14T02:01:00.292Z,94.70
2018-11-14T02:03:30.191Z,93.80
2018-11-14T02:05:59.413Z,93.70
2018-11-14T02:08:30.448Z,94.50
2018-11-14T02:11:00.324Z,93.70
2018-11-14T02:13:30.035Z,92.40
2018-11-14T02:15:59.877Z,92.60
2018-11-14T02:18:29.813Z,91.80
2018-11-14T02:20:59.147Z,92.60
2018-11-14T02:23:30.526Z,93.90
2018-11-14T02:26:00.871Z,94.30
2018-11-14T02:28:32.974Z,93.80
2018-11-14T02:31:02.213Z,93.30
2018-11-14T02:33:32.400Z,93.40
2018-11-14T02:36:02.085Z,94.00
2018-11-14T02:38:33.128Z,95.20
2018-11-14T02:41:02.422Z,95.30
2018-11-14T02:43:34.121Z,96.20
2018-11-14T02:46:03.362Z,95.70
2018-11-14T02:48:32.885Z,95.70
2018-11-14T02:51:13.120Z,95.20
2018-11-14T02:53:42.934Z,93.80
2018-11-14T02:56:12.556Z,92.80
2018-11-14T02:58:42.421Z,92.40
2018-11-14T03:01:11.786Z,92.60
2018-11-14T03:03:41.047Z,93.00
2018-11-14T03:06:11.176Z,93.70
2018-11-14T03:08:40.902Z,93.80
2018-11-14T03:11:10.412Z,93.90
2018-11-14T03:13:40.018Z,94.80
2018-11-14T03:16:09.260Z,95.20
2018-11-14T03:18:39.499Z,94.20
2018-11-14T03:21:09.462Z,94.00
2018-11-14T03:23:38.669Z,93.20
2018-11-14T03:26:07.874Z,92.80
2018-11-14T03:28:37.494Z,92.50
2018-11-14T03:31:07.046Z,92.40
2018-11-14T03:33:36.305Z,93.00
2018-11-14T03:36:10.703Z,93.40
2018-11-14T03:38:40.504Z,93.30
2018-11-14T03:41:09.735Z,92.90
2018-11-14T03:43:38.950Z,93.20
2018-11-14T03:46:08.303Z,92.80
2018-11-14T03:48:37.611Z,92.40
2018-11-14T03:51:07.874Z,92.40
2018-11-14T03:53:40.377Z,92.60
2018-11-14T03:56:09.896Z,93.00
2018-11-14T03:58:39.353Z,93.40
2018-11-14T04:01:09.558Z,92.90
2018-11-14T04:03:38.791Z,93.70
2018-11-14T04:06:07.993Z,94.40
2018-11-14T04:08:37.224Z,93.10
2018-11-14T04:11:07.409Z,92.70
2018-11-14T04:13:36.858Z,91.90
2018-11-14T04:16:10.413Z,92.00
2018-11-14T04:18:39.753Z,92.30
2018-11-14T04:21:09.198Z,92.40
2018-11-14T04:23:45.673Z,92.40
2018-11-14T04:26:15.371Z,92.40
2018-11-14T04:28:45.163Z,92.40
2018-11-14T04:31:15.817Z,92.30
2018-11-14T04:33:45.625Z,92.80
2018-11-14T04:36:15.480Z,92.40
2018-11-14T04:38:45.041Z,92.40
2018-11-14T04:41:14.287Z,92.00
2018-11-14T04:43:43.760Z,92.70
2018-11-14T04:46:13.867Z,93.00
2018-11-14T04:48:43.207Z,93.20
2018-11-14T04:51:12.417Z,93.20
2018-11-14T04:53:42.747Z,93.20
2018-11-14T04:56:11.927Z,92.80
2018-11-14T04:58:41.173Z,92.70
2018-11-14T05:01:15.365Z,92.30
2018-11-14T05:07:03.814Z,91.20
2018-11-14T05:09:33.604Z,89.50
2018-11-14T05:12:03.651Z,90.30
2018-11-14T05:14:34.184Z,90.70
2018-11-14T05:17:04.604Z,91.80
2018-11-14T05:19:33.879Z,92.10
2018-11-14T05:22:03.218Z,92.00
2018-11-14T05:24:34.721Z,92.30
2018-11-14T05:27:04.321Z,92.90
2018-11-14T05:29:33.694Z,92.10
2018-11-14T05:32:03.317Z,92.30
2018-11-14T05:34:32.659Z,91.60
2018-11-14T05:37:01.861Z,91.60
2018-11-14T05:39:32.133Z,91.50
2018-11-14T05:42:02.116Z,91.40
2018-11-14T05:44:32.384Z,90.80
2018-11-14T05:47:01.752Z,88.60
2018-11-14T05:49:31.268Z,87.40
2018-11-14T05:52:00.544Z,88.70
2018-11-14T05:54:30.252Z,89.10
2018-11-14T05:57:00.280Z,88.10
2018-11-14T05:59:29.823Z,90.60
2018-11-14T06:02:00.392Z,90.20
2018-11-14T06:04:30.450Z,89.10
2018-11-14T06:07:00.648Z,90.30
2018-11-14T06:09:30.542Z,90.30
2018-11-14T06:12:01.526Z,91.10
2018-11-14T06:14:31.949Z,90.30
2018-11-14T06:17:01.219Z,90.40
2018-11-14T06:19:30.878Z,88.80
2018-11-14T06:22:00.471Z,88.90
2018-11-14T06:24:30.760Z,90.60
2018-11-14T06:27:00.532Z,90.70
2018-11-14T06:29:31.333Z,90.60
2018-11-14T06:32:00.621Z,91.10
2018-11-14T06:34:30.508Z,90.60
2018-11-14T06:37:01.027Z,90.40
2018-11-14T06:39:31.194Z,90.30
2018-11-14T06:42:00.478Z,91.40
2018-11-14T06:44:30.421Z,90.90
2018-11-14T06:46:59.879Z,90.10
2018-11-14T06:49:30.094Z,90.50
2018-11-14T06:51:59.614Z,90.60
2018-11-14T06:54:28.856Z,91.10
2018-11-14T06:56:58.146Z,90.50
2018-11-14T06:59:27.528Z,91.00
2018-11-14T07:01:57.405Z,90.80
2018-11-14T07:04:29.105Z,90.70
2018-11-14T07:07:02.198Z,90.00
2018-11-14T07:09:32.156Z,83.90
2018-11-14T07:12:01.369Z,80.40
2018-11-14T07:14:33.325Z,83.80
2018-11-14T07:17:03.030Z,86.60
2018-11-14T07:19:34.059Z,89.00
2018-11-14T07:22:03.385Z,90.40
2018-11-14T07:24:32.896Z,90.40
2018-11-14T07:27:02.112Z,91.10
2018-11-14T07:29:31.380Z,91.90
2018-11-14T07:32:02.520Z,91.70
2018-11-14T07:34:32.059Z,91.10
2018-11-14T07:37:01.275Z,90.20
2018-11-14T07:39:30.562Z,90.70
2018-11-14T07:42:01.900Z,91.10
2018-11-14T07:44:31.269Z,86.50
2018-11-14T07:47:00.957Z,85.20
2018-11-14T07:49:31.391Z,87.10
2018-11-14T07:52:00.679Z,85.60
2018-11-14T07:54:31.839Z,86.70
2018-11-14T07:57:01.737Z,86.50
2018-11-14T07:59:31.012Z,87.50
2018-11-14T08:02:01.395Z,86.70
2018-11-14T08:04:31.638Z,86.70
2018-11-14T08:07:02.079Z,84.40
2018-11-14T08:09:32.192Z,84.00
2018-11-14T08:12:01.486Z,87.00
2018-11-14T08:14:31.349Z,88.20
2018-11-14T08:17:03.012Z,89.50
2018-11-14T08:19:32.587Z,90.20
2018-11-14T08:22:03.044Z,91.00
2018-11-14T08:24:33.589Z,90.30
2018-11-14T08:27:04.564Z,90.30
2018-11-14T08:29:33.890Z,88.60
2018-11-14T08:32:03.227Z,87.20
2018-11-14T08:34:33.458Z,87.20
2018-11-14T08:37:17.374Z,90.70
2018-11-14T08:39:46.583Z,91.30
2018-11-14T08:42:15.831Z,92.00
2018-11-14T08:44:47.099Z,93.20
2018-11-14T08:47:18.758Z,93.00
2018-11-14T08:49:49.827Z,93.00
2018-11-14T08:52:20.122Z,94.10
2018-11-14T08:55:05.566Z,94.60
2018-11-14T08:57:35.521Z,94.60
2018-11-14T09:00:12.795Z,94.90
2018-11-14T09:02:42.024Z,95.00
2018-11-14T09:05:11.791Z,95.00
2018-11-14T09:07:42.304Z,94.90
2018-11-14T09:10:14.466Z,94.30
2018-11-14T09:12:44.979Z,93.50
2018-11-14T09:15:16.632Z,92.80
2018-11-14T09:17:46.805Z,92.40
2018-11-14T09:20:20.069Z,92.40
2018-11-14T09:22:49.291Z,93.00
2018-11-14T09:25:33.097Z,93.40
2018-11-14T09:28:03.099Z,93.00
2018-11-14T09:30:33.454Z,92.70
2018-11-14T09:33:04.704Z,92.70
2018-11-14T09:35:33.977Z,92.80
2018-11-14T09:38:03.483Z,92.70
2018-11-14T09:40:34.277Z,92.00
2018-11-14T09:43:08.154Z,91.90
2018-11-14T09:45:39.501Z,92.00
2018-11-14T09:48:08.708Z,91.80
2018-11-14T09:50:38.964Z,90.30
2018-11-14T09:53:09.133Z,90.40
2018-11-14T09:55:40.978Z,90.60
2018-11-14T09:58:10.491Z,90.10
2018-11-14T10:00:39.898Z,89.90
2018-11-14T10:03:13.405Z,89.50
2018-11-14T10:05:45.837Z,90.20
2018-11-14T10:08:15.800Z,89.30
2018-11-14T10:10:46.001Z,89.90
2018-11-14T10:13:18.136Z,89.80
2018-11-14T10:15:49.477Z,89.60
2018-11-14T10:18:20.380Z,88.60
2018-11-14T10:20:50.581Z,89.30
2018-11-14T10:23:19.767Z,87.60
2018-11-14T10:25:49.001Z,84.80
2018-11-14T10:28:18.220Z,84.90
2018-11-14T10:30:53.423Z,83.10
2018-11-14T10:33:25.584Z,84.00
2018-11-14T10:35:55.044Z,81.30
2018-11-14T10:38:24.513Z,77.90
2018-11-14T10:40:54.562Z,77.80
2018-11-14T10:43:24.586Z,78.00
2018-11-14T10:45:53.843Z,77.30
2018-11-14T10:48:23.635Z,76.30
2018-11-14T10:50:52.969Z,75.60
2018-11-14T10:53:23.073Z,74.50
2018-11-14T10:55:52.453Z,71.20
2018-11-14T10:58:23.465Z,68.50
2018-11-14T11:00:57.843Z,67.90
2018-11-14T11:03:32.341Z,68.00
2018-11-14T11:06:15.792Z,68.70
2018-11-14T11:08:50.219Z,68.40
2018-11-14T11:11:24.764Z,67.30
2018-11-14T11:14:11.030Z,65.70
2018-11-14T11:16:46.707Z,65.10
2018-11-14T11:19:17.209Z,65.40
2018-11-14T11:21:48.144Z,64.40
2018-11-14T11:24:21.977Z,64.20
2018-11-14T11:26:52.781Z,64.20
2018-11-14T11:29:22.098Z,64.30
2018-11-14T11:31:52.081Z,64.50
2018-11-14T11:34:23.796Z,59.90
2018-11-14T11:36:53.011Z,61.40
2018-11-14T11:39:22.747Z,60.40
2018-11-14T11:41:55.666Z,61.30
2018-11-14T11:44:32.669Z,61.00
2018-11-14T11:47:04.099Z,61.60
2018-11-14T11:49:34.478Z,60.90
2018-11-14T11:52:06.034Z,58.70
2018-11-14T11:54:35.564Z,57.50
2018-11-14T11:57:05.685Z,57.40
2018-11-14T11:59:36.107Z,59.10
2018-11-14T12:02:05.560Z,58.10
2018-11-14T12:04:41.061Z,57.00
2018-11-14T12:07:14.051Z,55.10
2018-11-14T12:09:43.375Z,54.60
2018-11-14T12:12:14.206Z,53.60
2018-11-14T12:14:45.584Z,53.50
2018-11-14T12:17:16.495Z,53.10
2018-11-14T12:19:46.005Z,54.50
2018-11-14T12:22:17.216Z,54.40
2018-11-14T12:24:49.097Z,54.10
2018-11-14T12:27:18.805Z,55.00
2018-11-14T12:29:50.658Z,54.80
2018-11-14T12:32:21.965Z,55.90
2018-11-14T12:34:53.109Z,56.30
2018-11-14T12:37:22.532Z,55.70
2018-11-14T12:39:59.346Z,55.40
2018-11-14T12:42:32.014Z,54.70
2018-11-14T12:45:02.247Z,54.70
2018-11-14T12:47:32.509Z,53.70
2018-11-14T12:50:02.598Z,54.70
2018-11-14T12:52:38.114Z,54.00
2018-11-14T12:55:13.013Z,54.70
2018-11-14T12:57:43.914Z,54.60
2018-11-14T13:00:18.217Z,55.50
2018-11-14T13:02:48.840Z,55.40
2018-11-14T13:05:20.875Z,54.50
2018-11-14T13:07:53.634Z,53.30
2018-11-14T13:10:23.153Z,53.80
2018-11-14T13:12:56.759Z,51.90
2018-11-14T13:15:27.134Z,50.50
2018-11-14T13:17:57.393Z,50.70
2018-11-14T13:20:27.583Z,51.70
2018-11-14T13:22:57.053Z,51.00
2018-11-14T13:25:27.615Z,50.10
2018-11-14T13:27:57.294Z,49.30
2018-11-14T13:30:27.307Z,48.80
2018-11-14T13:32:57.296Z,49.30
2018-11-14T13:35:30.532Z,50.20
2018-11-14T13:38:00.683Z,50.20
2018-11-14T13:40:31.224Z,48.70
2018-11-14T13:43:02.759Z,47.60
2018-11-14T13:45:35.469Z,48.40
2018-11-14T13:48:07.060Z,47.30
2018-11-14T13:50:40.447Z,46.50
2018-11-14T13:53:11.762Z,46.20
2018-11-14T13:55:43.125Z,45.80
2018-11-14T13:58:12.491Z,44.20
2018-11-14T14:00:41.648Z,45.90
2018-11-14T14:03:10.926Z,43.80
2018-11-14T14:05:40.291Z,42.70
2018-11-14T14:08:10.856Z,40.60
2018-11-14T14:10:41.971Z,40.90
2018-11-14T14:13:11.510Z,38.20
2018-11-14T14:15:43.781Z,37.60
2018-11-14T14:18:13.003Z,35.10
2018-11-14T14:20:42.261Z,32.70
2018-11-14T14:23:11.505Z,30.10
2018-11-14T14:25:40.873Z,29.70
2018-11-14T14:28:10.093Z,29.20
2018-11-14T14:30:39.368Z,29.00
2018-11-14T14:33:08.627Z,29.50
2018-11-14T14:35:38.966Z,29.80
2018-11-14T14:38:08.632Z,31.30
2018-11-14T14:40:38.739Z,33.40
2018-11-14T14:43:10.422Z,35.10
2018-11-14T14:45:41.232Z,36.40
2018-11-14T14:48:10.902Z,38.20
2018-11-14T14:50:41.384Z,39.90
2018-11-14T14:53:11.233Z,41.40
2018-11-14T14:55:46.399Z,42.40
2018-11-14T14:58:16.973Z,44.00
2018-11-14T15:00:46.460Z,44.50
2018-11-14T15:03:16.814Z,45.90
2018-11-14T15:05:51.591Z,47.80
2018-11-14T15:08:21.897Z,50.10
2018-11-14T15:10:51.714Z,54.90
2018-11-14T15:13:21.190Z,57.30
2018-11-14T15:15:51.813Z,59.70
2018-11-14T15:18:21.486Z,62.00
2018-11-14T15:20:51.308Z,66.70
2018-11-14T15:23:21.514Z,66.50
2018-11-14T15:25:52.549Z,71.20
2018-11-14T15:28:22.101Z,70.90
2018-11-14T15:30:53.467Z,71.10
2018-11-14T15:33:23.715Z,75.20
2018-11-14T15:35:57.231Z,78.70
2018-11-14T15:38:26.726Z,78.30
2018-11-14T15:40:55.938Z,76.90
2018-11-14T15:43:30.829Z,81.40
2018-11-14T15:46:01.429Z,80.40
2018-11-14T15:48:30.816Z,79.60
2018-11-14T15:51:00.153Z,82.60
2018-11-14T15:53:29.397Z,83.90
2018-11-14T15:56:01.102Z,80.00
2018-11-14T15:58:35.041Z,82.20
2018-11-14T16:01:05.854Z,83.10
2018-11-14T16:03:37.815Z,85.90
2018-11-14T16:07:21.506Z,86.20
2018-11-14T16:09:50.984Z,84.60
2018-11-14T16:12:21.026Z,86.50
2018-11-14T16:14:52.565Z,90.20
2018-11-14T16:17:24.751Z,90.00
2018-11-14T16:19:54.152Z,90.90
2018-11-14T16:22:24.198Z,92.50
2018-11-14T16:24:54.758Z,92.00
2018-11-14T16:27:24.297Z,91.50
2018-11-14T16:29:53.701Z,90.40
2018-11-14T16:32:24.468Z,90.90
2018-11-14T16:34:54.820Z,90.70
2018-11-14T16:37:25.102Z,90.50
2018-11-14T16:39:54.340Z,91.80
2018-11-14T16:42:23.717Z,93.50
2018-11-14T16:44:53.889Z,94.10
2018-11-14T16:47:25.022Z,93.50
2018-11-14T16:49:55.206Z,93.80
2018-11-14T16:52:25.292Z,94.40
2018-11-14T16:54:55.162Z,94.70
2018-11-14T16:57:24.387Z,95.00
2018-11-14T16:59:54.510Z,93.90
2018-11-14T17:02:27.157Z,92.50
2018-11-14T17:04:56.706Z,92.20
2018-11-14T17:07:26.010Z,91.80
2018-11-14T17:09:56.251Z,92.70
2018-11-14T17:12:26.614Z,93.20
2018-11-14T17:14:55.881Z,94.00
2018-11-14T17:17:27.502Z,93.80
2018-11-14T17:19:57.323Z,92.90
2018-11-14T17:22:26.538Z,93.90
2018-11-14T17:24:57.975Z,93.90
2018-11-14T17:27:27.182Z,94.10
2018-11-14T17:29:56.961Z,93.70
2018-11-14T17:32:28.724Z,92.80
2018-11-14T17:35:00.966Z,92.90
2018-11-14T17:37:30.997Z,92.60
2018-11-14T17:40:00.246Z,92.80
2018-11-14T17:42:32.914Z,94.00
2018-11-14T17:45:02.078Z,94.60
2018-11-14T17:47:33.073Z,94.30
2018-11-14T17:50:02.373Z,94.30
2018-11-14T17:52:31.540Z,93.70
2018-11-14T17:55:01.787Z,93.40
2018-11-14T17:57:31.581Z,92.20
2018-11-14T18:00:00.838Z,93.00
2018-11-14T18:02:31.556Z,93.50
2018-11-14T18:05:01.710Z,92.50
2018-11-14T18:07:30.939Z,93.10
2018-11-14T18:10:00.208Z,93.00
2018-11-14T18:12:30.918Z,92.50
2018-11-14T18:15:02.631Z,92.50
2018-11-14T18:17:35.226Z,92.70
2018-11-14T18:20:05.232Z,93.10
2018-11-14T18:22:34.535Z,92.50
2018-11-14T18:25:04.340Z,91.00
2018-11-14T18:27:33.603Z,90.80
2018-11-14T18:30:03.985Z,91.80
2018-11-14T18:32:34.237Z,93.50
2018-11-14T18:35:04.142Z,94.50
2018-11-14T18:37:33.443Z,94.40
2018-11-14T18:40:04.443Z,93.90
2018-11-14T18:42:34.461Z,94.70
2018-11-14T18:45:03.808Z,94.80
2018-11-14T18:47:33.296Z,94.70
2018-11-14T18:50:03.626Z,94.70
2018-11-14T18:52:32.919Z,94.60
2018-11-14T18:55:02.243Z,94.50
2018-11-14T18:57:31.560Z,93.90
2018-11-14T19:00:00.946Z,94.30
2018-11-14T19:02:31.797Z,93.70
2018-11-14T19:05:02.465Z,90.90
2018-11-14T19:07:32.727Z,86.80
2018-11-14T19:10:03.404Z,91.50
2018-11-14T19:12:32.966Z,91.60
2018-11-14T19:15:02.628Z,93.00
2018-11-14T19:17:34.052Z,93.80
2018-11-14T19:20:03.362Z,94.20
2018-11-14T19:22:35.286Z,94.20
2018-11-14T19:25:08.165Z,94.40
2018-11-14T19:27:37.462Z,95.20
2018-11-14T19:30:10.323Z,96.00
2018-11-14T19:32:39.645Z,95.90
2018-11-14T19:35:15.218Z,95.90
2018-11-14T19:37:46.727Z,96.10
2018-11-14T19:40:21.830Z,95.50
2018-11-14T19:42:53.920Z,94.10
2018-11-14T19:45:27.267Z,93.70
2018-11-14T19:47:56.735Z,94.70
2018-11-14T19:50:26.419Z,93.10
2018-11-14T19:52:55.958Z,93.10
2018-11-14T19:55:29.034Z,93.70
2018-11-14T19:58:00.723Z,94.60
2018-11-14T20:00:33.455Z,94.90
2018-11-14T20:03:03.267Z,95.80
2018-11-14T20:05:34.755Z,95.50
2018-11-14T20:08:04.216Z,95.50
2018-11-14T20:10:34.309Z,95.40
2018-11-14T20:13:03.925Z,95.80
2018-11-14T20:15:36.193Z,95.50
2018-11-14T20:18:06.820Z,96.10
2018-11-14T20:20:40.990Z,95.90
2018-11-14T20:23:10.236Z,95.30
2018-11-14T20:25:50.082Z,95.60
2018-11-14T20:28:19.824Z,96.30
2018-11-14T20:30:50.442Z,97.80
2018-11-14T20:33:20.649Z,98.00
2018-11-14T20:35:51.429Z,97.90
2018-11-14T20:38:21.507Z,97.00
2018-11-14T20:40:56.330Z,97.20
2018-11-14T20:43:26.942Z,97.40
2018-11-14T20:45:56.393Z,97.20
2018-11-14T20:48:26.539Z,97.70
2018-11-14T20:50:56.943Z,97.20
2018-11-14T20:53:27.313Z,97.10
2018-11-14T20:55:57.416Z,97.40
2018-11-14T20:58:28.481Z,97.70
2018-11-14T21:00:58.134Z,96.80
2018-11-14T21:03:29.995Z,97.50
2018-11-14T21:06:00.075Z,96.70
2018-11-14T21:08:30.747Z,96.90
2018-11-14T21:11:00.663Z,96.50
2018-11-14T21:13:30.195Z,96.50
2018-11-14T21:15:59.921Z,97.20
2018-11-14T21:18:29.395Z,97.80
2018-11-14T21:20:59.260Z,97.60
2018-11-14T21:23:28.521Z,98.20
2018-11-14T21:25:58.124Z,98.30
2018-11-14T21:28:27.663Z,96.90
2018-11-14T21:30:57.032Z,96.60
2018-11-14T21:33:26.334Z,96.00
2018-11-14T21:35:57.431Z,94.60
2018-11-14T21:38:27.436Z,94.50
2018-11-14T21:40:58.406Z,95.50
2018-11-14T21:43:28.558Z,95.50
2018-11-14T21:45:57.764Z,96.40
2018-11-14T21:48:26.947Z,96.60
2018-11-14T21:50:57.560Z,97.90
2018-11-14T21:53:26.783Z,98.10
2018-11-14T21:55:56.419Z,98.10
2018-11-14T21:58:25.710Z,99.40
2018-11-14T22:00:55.198Z,98.80
2018-11-14T22:03:25.411Z,98.70
2018-11-14T22:05:56.445Z,98.00
2018-11-14T22:08:26.472Z,98.30
2018-11-14T22:10:56.464Z,97.90
2018-11-14T22:13:27.001Z,97.80
2018-11-14T22:15:56.866Z,97.80
2018-11-14T22:18:26.374Z,97.40
2018-11-14T22:20:56.430Z,97.90
2018-11-14T22:23:25.660Z,97.60
2018-11-14T22:25:54.979Z,97.10
2018-11-14T22:28:24.348Z,96.30
2018-11-14T22:30:54.789Z,94.60
2018-11-14T22:33:24.874Z,94.60
2018-11-14T22:35:56.617Z,94.70
2018-11-14T22:38:30.335Z,94.60
2018-11-14T22:40:59.567Z,95.10
2018-11-14T22:43:29.005Z,95.20
2018-11-14T22:45:59.371Z,94.90
2018-11-14T22:48:30.364Z,95.50
2018-11-14T22:51:00.106Z,95.20
2018-11-14T22:53:31.110Z,96.30
2018-11-14T22:56:01.255Z,95.60
2018-11-14T22:58:30.746Z,96.00
2018-11-14T23:01:00.528Z,96.20
2018-11-14T23:03:29.762Z,96.20
2018-11-14T23:05:59.024Z,94.80
2018-11-14T23:08:30.204Z,91.80
2018-11-14T23:11:00.868Z,90.90
2018-11-14T23:13:33.428Z,91.90
2018-11-14T23:16:02.750Z,92.10
2018-11-14T23:18:31.994Z,92.20
2018-11-14T23:21:02.062Z,93.00
2018-11-14T23:23:31.522Z,93.80
2018-11-14T23:26:02.054Z,94.30
2018-11-14T23:28:35.564Z,93.80
2018-11-14T23:31:05.070Z,93.20
2018-11-14T23:33:36.068Z,92.50
2018-11-14T23:36:09.170Z,92.00
2018-11-14T23:38:38.703Z,92.20
2018-11-14T23:41:08.570Z,93.10
2018-11-14T23:43:40.910Z,93.80
2018-11-14T23:46:10.797Z,94.10
2018-11-14T23:48:40.067Z,94.60
2018-11-14T23:51:09.310Z,94.90
2018-11-14T23:53:38.587Z,95.00
2018-11-14T23:56:08.655Z,95.00
2018-11-14T23:58:40.341Z,94.00
